createdAt,value
2022-10-09T00:01:11.072Z,21.50
2022-10-09T00:03:17.274Z,18.65
2022-10-09T00:07:20.784Z,14.02
2022-10-09T00:09:22.858Z,19.05
2022-10-09T00:11:26.155Z,17.25
2022-10-09T00:13:28.306Z,19.42
2022-10-09T00:15:29.860Z,22.10
2022-10-09T00:17:31.431Z,15.02
2022-10-09T00:19:33.131Z,16.60
2022-10-09T00:21:35.044Z,18.30
2022-10-09T00:23:36.788Z,17.70
2022-10-09T00:25:38.662Z,13.38
2022-10-09T00:27:40.348Z,16.85
2022-10-09T00:29:41.935Z,16.23
2022-10-09T00:31:43.841Z,17.15
2022-10-09T00:33:45.559Z,12.98
2022-10-09T00:35:47.851Z,11.32
2022-10-09T00:37:50.104Z,15.48
2022-10-09T00:39:51.643Z,15.18
2022-10-09T00:41:53.463Z,18.25
2022-10-09T00:43:56.653Z,17.15
2022-10-09T00:45:58.556Z,13.00
2022-10-09T00:48:04.909Z,17.27
2022-10-09T00:50:27.146Z,13.40
2022-10-09T00:52:28.956Z,13.38
2022-10-09T00:54:33.194Z,20.67
2022-10-09T00:56:35.339Z,13.07
2022-10-09T00:58:37.206Z,14.70
2022-10-09T01:00:39.258Z,17.48
2022-10-09T01:02:41.063Z,18.05
2022-10-09T01:04:42.655Z,16.88
2022-10-09T01:06:50.129Z,17.95
2022-10-09T01:08:58.423Z,17.65
2022-10-09T01:11:05.353Z,17.02
2022-10-09T01:13:20.676Z,13.88
2022-10-09T01:15:31.043Z,21.65
2022-10-09T01:17:35.666Z,22.15
2022-10-09T01:20:00.822Z,19.08
2022-10-09T01:22:19.027Z,16.85
2022-10-09T01:24:32.829Z,17.20
2022-10-09T01:26:49.427Z,15.13
2022-10-09T01:28:52.783Z,18.85
2022-10-09T01:30:55.568Z,16.58
2022-10-09T01:32:57.419Z,16.38
2022-10-09T01:35:00.262Z,18.75
2022-10-09T01:37:02.662Z,17.50
2022-10-09T01:39:05.620Z,21.45
2022-10-09T01:41:07.981Z,16.80
2022-10-09T01:43:09.560Z,20.25
2022-10-09T01:45:11.466Z,14.70
2022-10-09T01:47:15.920Z,13.73
2022-10-09T01:49:23.887Z,20.90
2022-10-09T01:51:27.789Z,18.95
2022-10-09T01:53:31.071Z,17.17
2022-10-09T01:55:38.522Z,20.45
2022-10-09T01:57:50.047Z,15.00
2022-10-09T01:59:52.535Z,17.13
2022-10-09T02:01:55.488Z,16.05
2022-10-09T02:06:01.249Z,20.70
2022-10-09T02:08:02.919Z,19.15
2022-10-09T02:10:05.989Z,19.70
2022-10-09T02:12:09.997Z,23.15
2022-10-09T02:14:11.801Z,23.42
2022-10-09T02:16:27.818Z,20.00
2022-10-09T02:18:58.805Z,18.38
2022-10-09T02:21:03.891Z,18.98
2022-10-09T02:23:07.319Z,24.08
2022-10-09T02:25:09.683Z,24.85
2022-10-09T02:27:12.371Z,21.38
2022-10-09T02:29:14.606Z,14.15
2022-10-09T02:31:33.438Z,19.42
2022-10-09T02:33:35.183Z,19.73
2022-10-09T02:35:37.903Z,17.58
2022-10-09T02:39:42.047Z,17.95
2022-10-09T02:41:43.611Z,15.65
2022-10-09T02:43:45.470Z,22.15
2022-10-09T02:45:46.957Z,20.58
2022-10-09T02:47:48.616Z,21.30
2022-10-09T02:49:50.332Z,20.17
2022-10-09T02:51:51.846Z,21.48
2022-10-09T02:53:53.914Z,21.65
2022-10-09T02:55:55.689Z,23.75
2022-10-09T02:57:57.986Z,22.48
2022-10-09T02:59:59.507Z,26.98
2022-10-09T03:02:01.662Z,24.67
2022-10-09T03:04:03.980Z,26.13
2022-10-09T03:06:13.682Z,28.58
2022-10-09T03:08:15.662Z,27.77
2022-10-09T03:10:18.760Z,26.80
2022-10-09T03:16:26.317Z,24.25
2022-10-09T03:18:27.832Z,24.67
2022-10-09T03:20:30.247Z,27.55
2022-10-09T03:22:31.800Z,28.15
2022-10-09T03:24:33.320Z,26.00
2022-10-09T03:26:35.039Z,23.67
2022-10-09T03:28:37.394Z,25.77
2022-10-09T03:30:40.632Z,27.10
2022-10-09T03:32:42.496Z,25.77
2022-10-09T03:34:44.087Z,24.98
2022-10-09T03:36:45.958Z,25.40
2022-10-09T03:38:47.845Z,23.83
2022-10-09T03:40:49.526Z,28.40
2022-10-09T03:42:51.509Z,29.42
2022-10-09T03:44:53.530Z,24.63
2022-10-09T03:46:55.184Z,24.35
2022-10-09T03:48:57.102Z,29.17
2022-10-09T03:50:58.812Z,26.67
2022-10-09T03:53:00.453Z,32.55
2022-10-09T03:55:02.436Z,25.13
2022-10-09T03:57:04.235Z,24.88
2022-10-09T03:59:07.479Z,30.73
2022-10-09T04:01:09.190Z,29.08
2022-10-09T04:03:11.289Z,26.38
2022-10-09T04:05:13.850Z,30.10
2022-10-09T04:07:15.418Z,27.05
2022-10-09T04:09:17.172Z,22.92
2022-10-09T04:11:18.893Z,25.67
2022-10-09T04:13:20.446Z,24.13
2022-10-09T04:15:22.209Z,21.92
2022-10-09T04:17:23.728Z,21.92
2022-10-09T04:19:25.568Z,18.38
2022-10-09T04:21:27.374Z,22.58
2022-10-09T04:23:29.246Z,20.35
2022-10-09T04:25:31.871Z,24.35
2022-10-09T04:27:34.154Z,22.17
2022-10-09T04:29:35.674Z,21.73
2022-10-09T04:31:37.411Z,17.20
2022-10-09T04:33:39.327Z,21.05
2022-10-09T04:35:44.202Z,23.55
2022-10-09T04:37:45.744Z,20.75
2022-10-09T04:39:47.671Z,24.13
2022-10-09T04:41:49.194Z,22.02
2022-10-09T04:43:54.342Z,18.60
2022-10-09T04:45:56.674Z,22.02
2022-10-09T04:47:58.228Z,21.33
2022-10-09T04:49:59.759Z,23.67
2022-10-09T04:52:01.663Z,23.35
2022-10-09T04:54:03.365Z,21.80
2022-10-09T04:56:06.811Z,25.83
2022-10-09T04:58:09.283Z,23.20
2022-10-09T05:00:11.254Z,25.30
2022-10-09T05:02:13.794Z,26.50
2022-10-09T05:04:15.591Z,26.77
2022-10-09T05:06:17.720Z,29.88
2022-10-09T05:08:19.265Z,24.13
2022-10-09T05:10:20.967Z,27.70
2022-10-09T05:12:22.510Z,23.65
2022-10-09T05:14:24.041Z,24.27
2022-10-09T05:16:27.338Z,25.17
2022-10-09T05:18:29.035Z,28.00
2022-10-09T05:20:30.534Z,25.38
2022-10-09T05:22:32.282Z,26.48
2022-10-09T05:24:33.801Z,22.98
2022-10-09T05:26:35.350Z,29.13
2022-10-09T05:28:37.253Z,23.75
2022-10-09T05:30:41.011Z,25.58
2022-10-09T05:32:42.503Z,25.80
2022-10-09T05:34:44.321Z,25.83
2022-10-09T05:36:45.980Z,26.90
2022-10-09T05:38:48.033Z,32.25
2022-10-09T05:41:00.542Z,24.27
2022-10-09T05:43:02.035Z,25.08
2022-10-09T05:45:03.866Z,26.35
2022-10-09T05:47:05.640Z,21.57
2022-10-09T05:49:07.295Z,26.73
2022-10-09T05:51:11.030Z,25.75
2022-10-09T05:53:13.276Z,23.23
2022-10-09T05:55:14.938Z,25.05
2022-10-09T05:57:16.572Z,22.60
2022-10-09T05:59:21.859Z,27.02
2022-10-09T06:01:24.406Z,22.50
2022-10-09T06:03:26.007Z,47.00
2022-10-09T06:05:27.743Z,22.92
2022-10-09T06:07:29.336Z,21.48
2022-10-09T06:09:30.965Z,21.83
2022-10-09T06:11:33.776Z,23.38
2022-10-09T06:13:35.426Z,22.00
2022-10-09T06:15:37.139Z,25.98
2022-10-09T06:17:38.954Z,25.90
2022-10-09T06:19:40.591Z,23.08
2022-10-09T06:21:42.414Z,24.63
2022-10-09T06:23:44.579Z,22.63
2022-10-09T06:25:56.177Z,22.17
2022-10-09T06:27:57.738Z,20.25
2022-10-09T06:29:59.980Z,24.50
2022-10-09T06:32:01.529Z,21.75
2022-10-09T06:34:05.790Z,21.88
2022-10-09T06:36:10.364Z,22.08
2022-10-09T06:38:12.319Z,20.23
2022-10-09T06:40:13.919Z,23.20
2022-10-09T06:42:16.543Z,21.83
2022-10-09T06:44:18.475Z,21.15
2022-10-09T06:46:21.343Z,20.10
2022-10-09T06:48:23.431Z,23.15
2022-10-09T06:50:25.034Z,17.95
2022-10-09T06:52:26.544Z,18.88
2022-10-09T06:54:28.263Z,19.45
2022-10-09T06:56:31.086Z,21.85
2022-10-09T06:58:32.709Z,18.83
2022-10-09T07:00:34.534Z,18.05
2022-10-09T07:02:41.792Z,18.27
2022-10-09T07:04:47.030Z,17.42
2022-10-09T07:06:48.829Z,15.50
2022-10-09T07:08:51.712Z,15.05
2022-10-09T07:10:53.337Z,13.13
2022-10-09T07:12:55.073Z,9.20
2022-10-09T07:14:56.573Z,10.00
2022-10-09T07:16:58.279Z,8.48
2022-10-09T07:19:03.267Z,10.35
2022-10-09T07:21:06.799Z,11.93
2022-10-09T07:23:08.387Z,8.55
2022-10-09T07:25:11.818Z,6.60
2022-10-09T07:27:13.355Z,7.20
2022-10-09T07:29:16.006Z,7.28
2022-10-09T07:31:18.782Z,7.50
2022-10-09T07:33:20.534Z,7.83
2022-10-09T07:35:22.407Z,9.68
2022-10-09T07:37:24.154Z,8.33
2022-10-09T07:39:26.050Z,8.50
2022-10-09T07:41:28.632Z,8.48
2022-10-09T07:43:30.855Z,11.27
2022-10-09T07:45:32.477Z,8.00
2022-10-09T07:47:34.054Z,8.90
2022-10-09T07:49:35.764Z,9.15
2022-10-09T07:51:37.298Z,9.00
2022-10-09T07:53:38.940Z,10.00
2022-10-09T07:55:44.580Z,9.82
2022-10-09T07:57:46.147Z,10.23
2022-10-09T07:59:47.772Z,9.73
2022-10-09T08:01:49.512Z,8.77
2022-10-09T08:03:51.437Z,15.40
2022-10-09T08:05:56.084Z,9.02
2022-10-09T08:07:57.878Z,9.65
2022-10-09T08:09:59.395Z,23.17
2022-10-09T08:12:00.995Z,15.15
2022-10-09T08:14:02.774Z,18.25
2022-10-09T08:16:04.848Z,9.40
2022-10-09T08:18:06.494Z,12.90
2022-10-09T08:20:08.640Z,13.07
2022-10-09T08:22:11.930Z,14.35
2022-10-09T08:24:13.610Z,13.55
2022-10-09T08:26:16.576Z,10.45
2022-10-09T08:28:18.302Z,9.23
2022-10-09T08:30:19.904Z,9.10
2022-10-09T08:32:21.739Z,8.98
2022-10-09T08:34:23.272Z,12.07
2022-10-09T08:36:25.299Z,12.18
2022-10-09T08:38:45.982Z,8.75
2022-10-09T08:40:57.447Z,10.95
2022-10-09T08:43:06.552Z,7.47
2022-10-09T08:45:16.733Z,9.45
2022-10-09T08:47:40.998Z,10.55
2022-10-09T08:50:01.950Z,7.10
2022-10-09T08:52:17.111Z,8.30
2022-10-09T08:54:25.569Z,8.98
2022-10-09T08:56:27.584Z,7.28
2022-10-09T08:58:31.820Z,12.02
2022-10-09T09:00:42.344Z,8.38
2022-10-09T09:02:58.193Z,11.98
2022-10-09T09:04:59.959Z,7.82
2022-10-09T09:07:07.610Z,7.95
2022-10-09T09:09:18.567Z,13.93
2022-10-09T09:11:35.874Z,10.32
2022-10-09T09:13:40.294Z,11.90
2022-10-09T09:15:41.921Z,12.10
2022-10-09T09:17:51.231Z,10.38
2022-10-09T09:20:11.372Z,11.60
2022-10-09T09:22:13.825Z,10.60
2022-10-09T09:24:17.293Z,11.50
2022-10-09T09:26:21.639Z,12.50
2022-10-09T09:28:29.156Z,14.20
2022-10-09T09:30:36.317Z,15.25
2022-10-09T09:32:41.325Z,15.30
2022-10-09T09:34:42.986Z,10.95
2022-10-09T09:36:48.655Z,11.30
2022-10-09T09:39:35.078Z,13.27
2022-10-09T09:41:12.383Z,8.60
2022-10-09T09:43:19.039Z,10.77
2022-10-09T09:45:21.790Z,9.15
2022-10-09T09:47:30.033Z,8.70
2022-10-09T09:49:31.814Z,11.13
2022-10-09T09:51:35.567Z,9.50
2022-10-09T09:53:39.956Z,10.10
2022-10-09T09:55:42.267Z,8.98
2022-10-09T09:57:45.107Z,9.10
2022-10-09T09:59:46.720Z,12.85
2022-10-09T10:01:48.503Z,10.18
2022-10-09T10:03:52.070Z,9.15
2022-10-09T10:05:53.683Z,13.90
2022-10-09T10:07:57.734Z,10.85
2022-10-09T10:10:25.367Z,10.75
2022-10-09T10:12:29.728Z,9.18
2022-10-09T10:14:32.564Z,9.45
2022-10-09T10:16:35.787Z,8.35
2022-10-09T10:18:41.815Z,10.52
2022-10-09T10:20:43.840Z,10.07
2022-10-09T10:22:53.045Z,7.60
2022-10-09T10:24:56.522Z,11.80
2022-10-09T10:27:18.470Z,9.98
2022-10-09T10:29:25.134Z,10.00
2022-10-09T10:31:47.305Z,9.80
2022-10-09T10:33:51.826Z,15.15
2022-10-09T10:35:55.257Z,14.07
2022-10-09T10:38:03.265Z,10.00
2022-10-09T10:40:05.108Z,18.15
2022-10-09T10:42:12.001Z,11.40
2022-10-09T10:44:23.203Z,9.52
2022-10-09T10:46:34.475Z,14.43
2022-10-09T10:48:39.996Z,12.32
2022-10-09T10:50:46.893Z,12.02
2022-10-09T10:53:03.718Z,14.88
2022-10-09T10:55:11.291Z,9.25
2022-10-09T10:57:18.694Z,9.40
2022-10-09T10:59:39.492Z,9.75
2022-10-09T11:02:01.268Z,8.93
2022-10-09T11:04:12.233Z,10.00
2022-10-09T11:06:26.094Z,7.00
2022-10-09T11:08:30.869Z,8.48
2022-10-09T11:10:39.929Z,10.65
2022-10-09T11:12:48.981Z,14.00
2022-10-09T11:15:08.746Z,8.32
2022-10-09T11:17:10.270Z,13.30
2022-10-09T11:19:24.241Z,9.82
2022-10-09T11:21:25.855Z,9.95
2022-10-09T11:23:46.608Z,9.25
2022-10-09T11:25:54.071Z,13.85
2022-10-09T11:27:58.449Z,8.18
2022-10-09T11:30:05.708Z,10.48
2022-10-09T11:32:26.136Z,9.70
2022-10-09T11:34:33.681Z,11.27
2022-10-09T11:36:42.219Z,11.57
2022-10-09T11:38:46.049Z,7.88
2022-10-09T11:40:48.146Z,14.65
2022-10-09T11:43:03.100Z,9.30
2022-10-09T11:45:07.712Z,10.70
2022-10-09T11:47:28.254Z,16.05
2022-10-09T11:49:35.801Z,11.05
2022-10-09T11:51:57.422Z,11.60
2022-10-09T11:53:59.187Z,13.70
2022-10-09T11:56:01.506Z,16.20
2022-10-09T11:58:18.644Z,13.25
2022-10-09T12:00:33.777Z,11.15
2022-10-09T12:02:36.006Z,14.27
2022-10-09T12:07:01.320Z,10.20
2022-10-09T12:09:07.223Z,16.02
2022-10-09T12:11:09.077Z,12.32
2022-10-09T12:13:27.492Z,13.18
2022-10-09T12:15:49.353Z,8.60
2022-10-09T12:17:52.030Z,8.98
2022-10-09T12:20:00.087Z,12.68
2022-10-09T12:22:06.075Z,9.90
2022-10-09T12:24:14.003Z,11.55
2022-10-09T12:26:16.854Z,7.88
2022-10-09T12:28:21.646Z,11.07
2022-10-09T12:30:25.790Z,7.72
2022-10-09T12:32:30.069Z,7.75
2022-10-09T12:34:33.716Z,9.88
2022-10-09T12:36:35.840Z,11.90
2022-10-09T12:38:37.935Z,7.43
2022-10-09T12:40:44.973Z,9.07
2022-10-09T12:42:47.640Z,8.60
2022-10-09T12:44:51.050Z,9.82
2022-10-09T12:46:53.088Z,6.47
2022-10-09T12:48:54.938Z,7.67
2022-10-09T12:50:56.665Z,7.95
2022-10-09T12:52:59.747Z,8.88
2022-10-09T12:55:02.316Z,8.10
2022-10-09T12:57:04.086Z,9.32
2022-10-09T12:59:06.950Z,8.13
2022-10-09T13:01:13.695Z,9.77
2022-10-09T13:03:34.898Z,8.02
2022-10-09T13:05:37.576Z,7.72
2022-10-09T13:07:39.408Z,10.80
2022-10-09T13:09:41.115Z,11.85
2022-10-09T13:11:44.747Z,6.75
2022-10-09T13:13:53.609Z,7.65
2022-10-09T13:15:59.297Z,8.90
2022-10-09T13:18:00.957Z,9.00
2022-10-09T13:20:22.404Z,8.00
2022-10-09T13:22:25.731Z,8.18
2022-10-09T13:24:29.525Z,11.13
2022-10-09T13:26:31.355Z,8.45
2022-10-09T13:28:33.021Z,13.38
2022-10-09T13:30:34.722Z,8.68
2022-10-09T13:32:36.911Z,11.60
2022-10-09T13:34:38.508Z,8.90
2022-10-09T13:36:40.523Z,12.98
2022-10-09T13:38:42.707Z,7.78
2022-10-09T13:40:44.479Z,9.90
2022-10-09T13:42:50.223Z,9.75
2022-10-09T13:44:52.055Z,9.40
2022-10-09T13:46:53.712Z,13.77
2022-10-09T13:48:55.288Z,9.85
2022-10-09T13:50:59.163Z,14.05
2022-10-09T13:53:00.889Z,9.05
2022-10-09T13:55:02.596Z,9.95
2022-10-09T13:57:04.491Z,11.35
2022-10-09T13:59:07.198Z,9.23
2022-10-09T14:01:09.513Z,10.98
2022-10-09T14:03:11.540Z,10.20
2022-10-09T14:05:13.216Z,12.18
2022-10-09T14:07:14.877Z,11.07
2022-10-09T14:09:16.740Z,8.32
2022-10-09T14:11:18.284Z,11.40
2022-10-09T14:13:20.666Z,11.20
2022-10-09T14:15:22.392Z,13.88
2022-10-09T14:17:23.931Z,8.45
2022-10-09T14:19:27.736Z,10.90
2022-10-09T14:21:30.114Z,9.70
2022-10-09T14:23:31.611Z,9.95
2022-10-09T14:25:36.304Z,10.45
2022-10-09T14:27:40.381Z,13.75
2022-10-09T14:29:46.067Z,12.63
2022-10-09T14:31:49.448Z,11.15
2022-10-09T14:33:56.533Z,11.52
2022-10-09T14:36:04.141Z,10.85
2022-10-09T14:38:05.689Z,12.00
2022-10-09T14:40:07.656Z,11.32
2022-10-09T14:42:09.807Z,12.68
2022-10-09T14:44:11.475Z,11.27
2022-10-09T14:46:17.501Z,10.48
2022-10-09T14:48:19.038Z,12.07
2022-10-09T14:50:20.587Z,11.63
2022-10-09T14:52:22.548Z,12.20
2022-10-09T14:54:24.395Z,15.00
2022-10-09T14:56:26.668Z,10.57
2022-10-09T14:58:32.692Z,12.23
2022-10-09T15:00:34.359Z,14.75
2022-10-09T15:02:35.913Z,10.55
2022-10-09T15:04:37.683Z,11.18
2022-10-09T15:06:39.240Z,9.93
2022-10-09T15:08:42.208Z,12.82
2022-10-09T15:12:45.462Z,12.60
2022-10-09T15:14:47.403Z,10.45
2022-10-09T15:16:49.140Z,12.20
2022-10-09T15:18:51.534Z,11.15
2022-10-09T15:20:53.275Z,16.67
2022-10-09T15:22:55.068Z,13.05
2022-10-09T15:24:56.619Z,13.77
2022-10-09T15:26:58.243Z,13.07
2022-10-09T15:29:04.791Z,12.48
2022-10-09T15:31:07.089Z,18.58
2022-10-09T15:33:08.783Z,18.60
2022-10-09T15:35:10.539Z,14.68
2022-10-09T15:37:12.322Z,17.77
2022-10-09T15:39:14.277Z,18.35
2022-10-09T15:41:26.489Z,17.25
2022-10-09T15:43:28.110Z,14.45
2022-10-09T15:45:29.754Z,14.32
2022-10-09T15:47:50.056Z,14.77
2022-10-09T15:49:53.529Z,16.55
2022-10-09T15:51:55.251Z,15.32
2022-10-09T15:53:58.964Z,16.83
2022-10-09T15:56:04.067Z,17.30
2022-10-09T15:58:07.157Z,18.88
2022-10-09T16:00:09.871Z,16.27
2022-10-09T16:02:11.926Z,21.70
2022-10-09T16:04:15.639Z,13.97
2022-10-09T16:06:19.584Z,22.80
2022-10-09T16:08:22.569Z,16.38
2022-10-09T16:10:24.224Z,13.65
2022-10-09T16:12:25.961Z,18.42
2022-10-09T16:14:28.899Z,15.75
2022-10-09T16:16:30.763Z,16.60
2022-10-09T16:18:32.802Z,20.35
2022-10-09T16:20:34.880Z,16.60
2022-10-09T16:22:36.686Z,23.40
2022-10-09T16:24:38.647Z,19.95
2022-10-09T16:26:40.257Z,17.67
2022-10-09T16:28:41.856Z,33.63
2022-10-09T16:30:44.472Z,60.70
2022-10-09T16:32:50.044Z,24.73
2022-10-09T16:34:51.835Z,21.00
2022-10-09T16:36:53.646Z,20.73
2022-10-09T16:38:55.683Z,23.25
2022-10-09T16:41:01.900Z,20.85
2022-10-09T16:43:04.638Z,20.23
2022-10-09T16:45:06.499Z,22.13
2022-10-09T16:47:08.133Z,18.67
2022-10-09T16:49:14.784Z,19.33
2022-10-09T16:51:18.004Z,28.50
2022-10-09T16:53:19.567Z,24.83
2022-10-09T16:55:22.118Z,24.70
2022-10-09T16:57:24.039Z,25.23
2022-10-09T16:59:25.753Z,28.42
2022-10-09T17:01:28.042Z,25.60
2022-10-09T17:03:30.303Z,26.10
2022-10-09T17:05:31.886Z,20.30
2022-10-09T17:07:33.836Z,23.70
2022-10-09T17:09:37.426Z,27.88
2022-10-09T17:11:39.066Z,22.25
2022-10-09T17:13:40.835Z,29.83
2022-10-09T17:15:42.673Z,31.75
2022-10-09T17:17:44.625Z,32.47
2022-10-09T17:19:46.479Z,25.65
2022-10-09T17:21:48.289Z,26.08
2022-10-09T17:23:52.677Z,31.80
2022-10-09T17:25:56.907Z,28.95
2022-10-09T17:27:58.566Z,24.63
2022-10-09T17:30:00.296Z,23.52
2022-10-09T17:32:02.215Z,27.40
2022-10-09T17:34:04.400Z,30.75
2022-10-09T17:36:06.034Z,23.75
2022-10-09T17:38:08.588Z,29.35
2022-10-09T17:40:10.241Z,26.08
2022-10-09T17:42:11.964Z,30.70
2022-10-09T17:44:15.146Z,26.35
2022-10-09T17:48:19.096Z,26.90
2022-10-09T17:50:20.952Z,27.15
2022-10-09T17:52:26.623Z,25.63
2022-10-09T17:54:28.176Z,32.10
2022-10-09T17:56:31.040Z,25.98
2022-10-09T17:58:32.616Z,28.77
2022-10-09T18:00:36.912Z,33.00
2022-10-09T18:02:38.663Z,33.97
2022-10-09T18:04:40.276Z,32.92
2022-10-09T18:06:41.895Z,40.72
2022-10-09T18:08:43.958Z,40.20
2022-10-09T18:10:45.831Z,36.78
2022-10-09T18:12:48.091Z,37.38
2022-10-09T18:14:49.902Z,32.78
2022-10-09T18:16:53.620Z,52.80
2022-10-09T18:18:55.175Z,34.70
2022-10-09T18:21:02.275Z,38.00
2022-10-09T18:23:04.454Z,33.15
2022-10-09T18:25:06.242Z,28.50
2022-10-09T18:27:08.029Z,28.80
2022-10-09T18:29:09.642Z,32.47
2022-10-09T18:31:13.517Z,33.40
2022-10-09T18:33:16.203Z,32.40
2022-10-09T18:35:18.277Z,35.92
2022-10-09T18:37:20.124Z,39.80
2022-10-09T18:39:22.992Z,48.77
2022-10-09T18:41:24.548Z,45.05
2022-10-09T18:43:27.039Z,37.55
2022-10-09T18:45:28.809Z,46.85
2022-10-09T18:47:37.074Z,43.03
2022-10-09T18:49:41.409Z,45.95
2022-10-09T18:51:43.908Z,42.72
2022-10-09T18:53:47.426Z,44.25
2022-10-09T18:55:49.284Z,41.72
2022-10-09T18:57:51.763Z,32.40
2022-10-09T18:59:54.392Z,33.67
2022-10-09T19:01:55.930Z,35.60
2022-10-09T19:03:57.666Z,38.88
2022-10-09T19:05:59.394Z,36.28
2022-10-09T19:08:01.304Z,44.40
2022-10-09T19:10:05.117Z,36.35
2022-10-09T19:12:06.774Z,57.20
2022-10-09T19:14:08.355Z,46.38
2022-10-09T19:16:10.399Z,39.78
2022-10-09T19:18:12.100Z,48.17
2022-10-09T19:20:13.759Z,55.70
2022-10-09T19:22:19.027Z,43.47
2022-10-09T19:24:22.983Z,41.92
2022-10-09T19:26:24.563Z,48.13
2022-10-09T19:28:30.529Z,44.28
2022-10-09T19:30:32.122Z,45.05
2022-10-09T19:32:33.668Z,47.42
2022-10-09T19:34:35.779Z,38.97
2022-10-09T19:36:37.567Z,37.25
2022-10-09T19:38:39.522Z,36.42
2022-10-09T19:40:41.397Z,35.42
2022-10-09T19:42:43.093Z,32.13
2022-10-09T19:44:45.379Z,37.97
2022-10-09T19:46:48.093Z,40.22
2022-10-09T19:48:50.112Z,36.60
2022-10-09T19:50:51.645Z,44.35
2022-10-09T19:52:56.054Z,41.00
2022-10-09T19:54:57.766Z,42.78
2022-10-09T19:56:59.348Z,46.30
2022-10-09T19:59:02.501Z,48.97
2022-10-09T20:01:04.142Z,50.05
2022-10-09T20:03:05.745Z,50.30
2022-10-09T20:05:08.104Z,46.40
2022-10-09T20:07:12.690Z,47.42
2022-10-09T20:09:14.893Z,49.47
2022-10-09T20:11:16.978Z,38.57
2022-10-09T20:13:18.529Z,44.03
2022-10-09T20:15:22.306Z,44.22
2022-10-09T20:17:24.211Z,47.47
2022-10-09T20:19:25.833Z,42.97
2022-10-09T20:21:29.084Z,47.78
2022-10-09T20:23:31.064Z,50.55
2022-10-09T20:25:32.745Z,50.88
2022-10-09T20:27:34.278Z,56.60
2022-10-09T20:29:36.186Z,58.72
2022-10-09T20:31:38.206Z,56.17
2022-10-09T20:33:40.338Z,52.70
2022-10-09T20:35:43.149Z,55.45
2022-10-09T20:37:44.627Z,54.55
2022-10-09T20:39:46.265Z,54.47
2022-10-09T20:41:48.593Z,48.13
2022-10-09T20:43:51.181Z,49.37
2022-10-09T20:45:52.758Z,55.20
2022-10-09T20:47:54.526Z,54.70
2022-10-09T20:49:56.088Z,46.65
2022-10-09T20:51:58.357Z,52.67
2022-10-09T20:54:01.266Z,52.15
2022-10-09T20:56:04.920Z,56.90
2022-10-09T20:58:06.447Z,52.72
2022-10-09T21:00:12.600Z,56.88
2022-10-09T21:02:14.424Z,54.97
2022-10-09T21:04:15.944Z,56.22
2022-10-09T21:06:19.545Z,62.05
2022-10-09T21:08:21.137Z,57.63
2022-10-09T21:10:22.713Z,61.97
2022-10-09T21:12:24.482Z,59.70
2022-10-09T21:14:26.487Z,63.73
2022-10-09T21:16:28.112Z,55.60
2022-10-09T21:18:29.935Z,63.28
2022-10-09T21:20:31.469Z,68.43
2022-10-09T21:22:33.426Z,63.88
2022-10-09T21:24:35.189Z,67.40
2022-10-09T21:26:38.521Z,69.07
2022-10-09T21:28:40.336Z,73.38
2022-10-09T21:30:42.249Z,79.22
2022-10-09T21:32:43.753Z,74.30
2022-10-09T21:34:45.723Z,73.68
2022-10-09T21:37:16.342Z,74.60
2022-10-09T21:39:10.323Z,78.57
2022-10-09T21:41:11.804Z,72.75
2022-10-09T21:43:14.105Z,76.25
2022-10-09T21:45:16.366Z,74.68
2022-10-09T21:47:21.184Z,69.90
2022-10-09T21:49:23.706Z,69.97
2022-10-09T21:51:25.331Z,72.88
2022-10-09T21:53:26.837Z,72.68
2022-10-09T21:55:29.058Z,78.80
2022-10-09T21:57:31.011Z,69.30
2022-10-09T21:59:32.535Z,65.72
2022-10-09T22:01:34.330Z,66.55
2022-10-09T22:03:36.356Z,64.68
2022-10-09T22:05:41.741Z,66.97
2022-10-09T22:07:43.485Z,68.88
2022-10-09T22:09:45.078Z,65.30
2022-10-09T22:11:46.681Z,65.07
2022-10-09T22:13:48.442Z,61.58
2022-10-09T22:15:51.393Z,66.45
2022-10-09T22:17:53.328Z,60.10
2022-10-09T22:19:55.116Z,58.83
2022-10-09T22:21:56.630Z,63.15
2022-10-09T22:23:59.403Z,67.53
2022-10-09T22:28:02.643Z,71.53
2022-10-09T22:30:04.443Z,71.82
2022-10-09T22:32:06.259Z,69.50
2022-10-09T22:34:08.891Z,79.75
2022-10-09T22:36:12.416Z,66.63
2022-10-09T22:38:14.163Z,72.35
2022-10-09T22:40:15.829Z,61.78
2022-10-09T22:42:17.440Z,74.53
2022-10-09T22:44:19.300Z,68.35
2022-10-09T22:46:22.238Z,62.53
2022-10-09T22:48:23.775Z,64.60
2022-10-09T22:50:25.508Z,63.25
2022-10-09T22:52:27.282Z,67.28
2022-10-09T22:54:28.780Z,66.47
2022-10-09T22:56:32.428Z,65.63
2022-10-09T22:58:34.493Z,67.80
2022-10-09T23:00:36.978Z,65.67
2022-10-09T23:02:38.704Z,71.20
2022-10-09T23:04:40.264Z,69.47
2022-10-09T23:06:42.396Z,64.22
2022-10-09T23:08:45.155Z,75.25
2022-10-09T23:10:46.682Z,60.38
2022-10-09T23:12:48.517Z,61.42
2022-10-09T23:14:50.487Z,64.32
2022-10-09T23:16:52.268Z,63.50
2022-10-09T23:18:54.034Z,64.60
2022-10-09T23:20:56.185Z,63.95
2022-10-09T23:22:57.802Z,69.28
2022-10-09T23:24:59.299Z,68.70
2022-10-09T23:27:01.051Z,74.70
2022-10-09T23:29:06.661Z,67.93
2022-10-09T23:31:12.989Z,66.15
2022-10-09T23:33:14.881Z,65.35
2022-10-09T23:35:16.515Z,64.30
2022-10-09T23:37:18.072Z,70.90
2022-10-09T23:39:19.794Z,66.35
2022-10-09T23:41:22.753Z,61.40
2022-10-09T23:45:25.957Z,61.13
2022-10-09T23:47:27.595Z,60.70
2022-10-09T23:49:29.086Z,59.40
2022-10-09T23:51:31.059Z,55.92
2022-10-09T23:53:33.145Z,58.85
2022-10-09T23:55:34.628Z,55.53
2022-10-09T23:57:37.003Z,56.78
2022-10-09T23:59:39.434Z,53.00
